createdAt,value
2023-03-08T00:01:20.492Z,10.60
2023-03-08T00:03:46.944Z,10.50
2023-03-08T00:06:15.889Z,11.50
2023-03-08T00:08:43.071Z,11.20
2023-03-08T00:11:12.504Z,10.80
2023-03-08T00:13:40.030Z,10.80
2023-03-08T00:16:09.296Z,11.50
2023-03-08T00:18:36.462Z,11.00
2023-03-08T00:21:09.413Z,10.50
2023-03-08T00:23:36.218Z,9.60
2023-03-08T00:26:03.232Z,10.00
2023-03-08T00:28:30.345Z,9.30
2023-03-08T00:31:09.264Z,8.70
2023-03-08T00:33:36.649Z,9.70
2023-03-08T00:36:17.659Z,10.30
2023-03-08T00:38:45.102Z,8.90
2023-03-08T00:41:11.962Z,9.90
2023-03-08T00:43:38.821Z,8.30
2023-03-08T00:46:05.922Z,8.80
2023-03-08T00:48:32.626Z,6.80
2023-03-08T00:50:59.411Z,8.20
2023-03-08T00:53:26.168Z,8.30
2023-03-08T00:55:55.572Z,8.80
2023-03-08T00:58:23.801Z,8.00
2023-03-08T01:00:50.735Z,8.50
2023-03-08T01:03:18.073Z,8.60
2023-03-08T01:05:51.594Z,8.00
2023-03-08T01:08:19.369Z,8.10
2023-03-08T01:10:59.395Z,8.00
2023-03-08T01:13:28.934Z,8.00
2023-03-08T01:15:55.662Z,9.00
2023-03-08T01:18:22.287Z,8.90
2023-03-08T01:21:04.106Z,8.00
2023-03-08T01:23:31.471Z,8.20
2023-03-08T01:26:03.490Z,8.40
2023-03-08T01:28:30.480Z,8.00
2023-03-08T01:31:10.733Z,8.40
2023-03-08T01:33:37.952Z,8.10
2023-03-08T01:36:06.712Z,7.60
2023-03-08T01:38:33.448Z,8.00
2023-03-08T01:41:02.458Z,8.30
2023-03-08T01:43:34.645Z,8.60
2023-03-08T01:46:22.936Z,8.80
2023-03-08T01:49:05.088Z,7.90
2023-03-08T01:51:49.923Z,8.40
2023-03-08T01:54:38.100Z,8.60
2023-03-08T01:57:09.973Z,8.60
2023-03-08T01:59:37.531Z,8.20
2023-03-08T02:02:04.448Z,7.70
2023-03-08T02:04:39.353Z,8.60
2023-03-08T02:07:06.103Z,9.00
2023-03-08T02:09:32.728Z,10.70
2023-03-08T02:12:01.671Z,10.20
2023-03-08T02:14:29.029Z,10.10
2023-03-08T02:16:55.575Z,9.70
2023-03-08T02:19:35.717Z,9.50
2023-03-08T02:22:11.287Z,9.50
2023-03-08T02:24:37.863Z,9.60
2023-03-08T02:27:19.560Z,9.70
2023-03-08T02:29:46.089Z,9.40
2023-03-08T02:32:12.884Z,9.00
2023-03-08T02:34:39.442Z,8.90
2023-03-08T02:37:06.118Z,7.90
2023-03-08T02:39:32.620Z,8.20
2023-03-08T02:41:59.227Z,7.90
2023-03-08T02:44:26.347Z,7.50
2023-03-08T02:46:53.327Z,8.40
2023-03-08T02:49:20.189Z,7.20
2023-03-08T02:51:46.767Z,8.00
2023-03-08T02:54:14.864Z,7.10
2023-03-08T02:56:42.441Z,7.90
2023-03-08T02:59:09.020Z,6.90
2023-03-08T03:01:36.026Z,7.40
2023-03-08T03:04:02.679Z,7.60
2023-03-08T03:06:29.300Z,8.30
2023-03-08T03:08:55.864Z,6.90
2023-03-08T03:11:23.654Z,7.10
2023-03-08T03:14:00.835Z,6.80
2023-03-08T03:16:28.589Z,7.00
2023-03-08T03:18:56.540Z,7.90
2023-03-08T03:21:24.023Z,7.10
2023-03-08T03:23:51.321Z,7.80
2023-03-08T03:26:21.062Z,7.00
2023-03-08T03:28:48.407Z,7.40
2023-03-08T03:31:18.506Z,7.90
2023-03-08T03:33:46.232Z,7.90
2023-03-08T03:36:14.841Z,7.70
2023-03-08T03:38:41.458Z,7.60
2023-03-08T03:41:11.055Z,7.50
2023-03-08T03:43:38.284Z,7.30
2023-03-08T03:46:07.741Z,7.80
2023-03-08T03:48:35.125Z,7.90
2023-03-08T03:51:07.941Z,8.00
2023-03-08T03:53:35.574Z,8.30
2023-03-08T03:56:12.266Z,7.70
2023-03-08T03:58:39.018Z,8.20
2023-03-08T04:01:10.772Z,8.10
2023-03-08T04:03:37.810Z,8.10
2023-03-08T04:06:14.590Z,9.30
2023-03-08T04:08:41.992Z,8.60
2023-03-08T04:11:17.604Z,8.00
2023-03-08T04:13:44.545Z,9.10
2023-03-08T04:16:13.848Z,8.80
2023-03-08T04:18:40.514Z,8.80
2023-03-08T04:21:07.864Z,9.00
2023-03-08T04:23:34.710Z,8.50
2023-03-08T04:26:02.083Z,8.80
2023-03-08T04:28:29.016Z,8.60
2023-03-08T04:30:55.978Z,8.80
2023-03-08T04:33:23.535Z,9.40
2023-03-08T04:35:50.328Z,8.50
2023-03-08T04:38:18.364Z,8.70
2023-03-08T04:40:52.429Z,8.70
2023-03-08T04:43:18.957Z,9.30
2023-03-08T04:45:45.384Z,8.80
2023-03-08T04:48:11.949Z,9.40
2023-03-08T04:50:38.523Z,9.70
2023-03-08T04:53:05.710Z,8.50
2023-03-08T04:55:32.366Z,9.90
2023-03-08T04:57:58.854Z,10.10
2023-03-08T05:00:25.428Z,9.70
2023-03-08T05:02:51.946Z,8.70
2023-03-08T05:05:18.449Z,10.00
2023-03-08T05:07:44.997Z,9.40
2023-03-08T05:10:11.642Z,10.20
2023-03-08T05:12:38.130Z,10.20
2023-03-08T05:15:05.289Z,11.60
2023-03-08T05:17:31.873Z,11.00
2023-03-08T05:19:58.394Z,10.10
2023-03-08T05:22:24.852Z,10.50
2023-03-08T05:24:51.323Z,11.10
2023-03-08T05:27:18.174Z,10.00
2023-03-08T05:29:44.767Z,11.10
2023-03-08T05:32:12.696Z,11.30
2023-03-08T05:34:39.184Z,12.90
2023-03-08T05:37:05.579Z,12.90
2023-03-08T05:39:32.042Z,12.50
2023-03-08T05:41:58.455Z,10.60
2023-03-08T05:44:24.980Z,11.40
2023-03-08T05:46:52.268Z,11.20
2023-03-08T05:49:18.694Z,11.80
2023-03-08T05:51:45.084Z,13.20
2023-03-08T05:54:11.879Z,12.10
2023-03-08T05:56:38.429Z,11.90
2023-03-08T05:59:04.800Z,11.20
2023-03-08T06:01:31.417Z,12.20
2023-03-08T06:03:58.271Z,11.60
2023-03-08T06:06:27.378Z,10.90
2023-03-08T06:08:54.624Z,10.50
2023-03-08T06:11:21.174Z,10.30
2023-03-08T06:13:47.923Z,11.70
2023-03-08T06:16:14.808Z,12.90
2023-03-08T06:18:42.861Z,11.30
2023-03-08T06:21:13.729Z,11.10
2023-03-08T06:23:41.081Z,10.60
2023-03-08T06:26:09.382Z,9.20
2023-03-08T06:28:37.029Z,9.70
2023-03-08T06:31:04.264Z,9.10
2023-03-08T06:33:33.009Z,8.80
2023-03-08T06:36:05.948Z,9.00
2023-03-08T06:38:34.495Z,9.10
2023-03-08T06:41:02.173Z,8.80
2023-03-08T06:43:29.693Z,9.00
2023-03-08T06:45:56.718Z,8.00
2023-03-08T06:48:23.711Z,8.70
2023-03-08T06:50:50.513Z,7.80
2023-03-08T06:53:17.380Z,8.10
2023-03-08T06:55:43.876Z,8.10
2023-03-08T06:58:10.477Z,9.00
2023-03-08T07:00:37.329Z,8.10
2023-03-08T07:03:03.998Z,8.40
2023-03-08T07:05:30.929Z,8.40
2023-03-08T07:07:57.579Z,7.70
2023-03-08T07:10:24.546Z,7.80
2023-03-08T07:12:51.513Z,10.00
2023-03-08T07:15:21.930Z,7.60
2023-03-08T07:17:50.444Z,7.50
2023-03-08T07:20:19.948Z,6.90
2023-03-08T07:22:46.976Z,7.80
2023-03-08T07:25:15.644Z,8.40
2023-03-08T07:27:42.677Z,7.30
2023-03-08T07:30:11.450Z,7.30
2023-03-08T07:32:38.880Z,7.30
2023-03-08T07:35:07.370Z,6.80
2023-03-08T07:37:34.658Z,7.00
2023-03-08T07:40:01.244Z,7.10
2023-03-08T07:42:27.865Z,6.90
2023-03-08T07:44:54.366Z,7.10
2023-03-08T07:47:20.799Z,7.00
2023-03-08T07:49:47.448Z,6.70
2023-03-08T07:52:14.561Z,7.20
2023-03-08T07:54:41.254Z,7.50
2023-03-08T07:57:10.847Z,7.20
2023-03-08T07:59:37.246Z,7.80
2023-03-08T08:02:03.796Z,7.80
2023-03-08T08:04:30.357Z,7.70
2023-03-08T08:06:56.898Z,8.50
2023-03-08T08:09:23.438Z,7.80
2023-03-08T08:11:50.070Z,7.40
2023-03-08T08:14:16.528Z,7.90
2023-03-08T08:16:42.966Z,7.40
2023-03-08T08:19:11.382Z,7.90
2023-03-08T08:21:38.308Z,7.50
2023-03-08T08:24:05.467Z,6.90
2023-03-08T08:26:32.222Z,8.10
2023-03-08T08:28:58.922Z,7.00
2023-03-08T08:31:29.564Z,6.80
2023-03-08T08:33:56.009Z,6.90
2023-03-08T08:36:22.996Z,6.00
2023-03-08T08:38:50.346Z,6.60
2023-03-08T08:41:19.070Z,6.50
2023-03-08T08:43:47.121Z,6.00
2023-03-08T08:46:15.164Z,6.20
2023-03-08T08:48:43.064Z,6.60
2023-03-08T08:51:13.601Z,7.90
2023-03-08T08:53:40.042Z,6.70
2023-03-08T08:56:28.173Z,6.60
2023-03-08T08:59:00.603Z,7.00
2023-03-08T09:01:29.698Z,7.20
2023-03-08T09:03:56.535Z,6.50
2023-03-08T09:06:24.483Z,6.90
2023-03-08T09:08:52.363Z,6.90
2023-03-08T09:11:18.917Z,5.80
2023-03-08T09:13:45.479Z,6.10
2023-03-08T09:16:30.956Z,6.50
2023-03-08T09:18:58.957Z,6.20
2023-03-08T09:21:26.683Z,6.10
2023-03-08T09:23:54.246Z,6.00
2023-03-08T09:26:21.029Z,5.70
2023-03-08T09:28:47.771Z,6.50
2023-03-08T09:31:17.070Z,6.00
2023-03-08T09:33:46.806Z,6.50
2023-03-08T09:36:13.661Z,6.20
2023-03-08T09:38:40.818Z,5.70
2023-03-08T09:41:10.333Z,5.80
2023-03-08T09:44:04.399Z,5.50
2023-03-08T09:46:38.110Z,5.00
2023-03-08T09:49:13.148Z,5.20
2023-03-08T09:51:44.907Z,5.10
2023-03-08T09:54:17.335Z,4.90
2023-03-08T09:56:48.817Z,5.20
2023-03-08T09:59:31.828Z,5.20
2023-03-08T10:02:24.268Z,4.60
2023-03-08T10:05:14.126Z,4.90
2023-03-08T10:08:13.337Z,5.10
2023-03-08T10:10:48.928Z,5.00
2023-03-08T10:13:30.549Z,5.60
2023-03-08T10:16:27.141Z,5.70
2023-03-08T10:19:00.714Z,5.00
2023-03-08T10:21:29.675Z,5.50
2023-03-08T10:24:12.753Z,5.10
2023-03-08T10:26:41.202Z,5.00
2023-03-08T10:29:12.123Z,5.00
2023-03-08T10:31:39.253Z,6.60
2023-03-08T10:34:21.221Z,8.50
2023-03-08T10:36:53.454Z,4.30
2023-03-08T10:39:21.165Z,5.10
2023-03-08T10:41:52.611Z,5.00
2023-03-08T10:44:39.000Z,4.10
2023-03-08T10:47:24.297Z,4.20
2023-03-08T10:50:12.788Z,5.10
2023-03-08T10:52:40.093Z,5.30
2023-03-08T10:55:06.553Z,4.70
2023-03-08T10:57:34.029Z,4.60
2023-03-08T11:00:26.784Z,5.10
2023-03-08T11:03:20.875Z,4.30
2023-03-08T11:05:58.063Z,4.90
2023-03-08T11:08:36.977Z,5.40
2023-03-08T11:11:12.200Z,5.00
2023-03-08T11:13:42.797Z,4.10
2023-03-08T11:16:27.203Z,4.40
2023-03-08T11:19:08.783Z,5.10
2023-03-08T11:21:51.589Z,4.70
2023-03-08T11:24:28.442Z,4.40
2023-03-08T11:27:21.353Z,4.50
2023-03-08T11:30:06.258Z,3.70
2023-03-08T11:32:38.828Z,3.40
2023-03-08T11:35:19.393Z,3.70
2023-03-08T11:38:22.441Z,4.50
2023-03-08T11:40:54.540Z,5.00
2023-03-08T11:43:43.579Z,6.00
2023-03-08T11:46:16.278Z,4.30
2023-03-08T11:48:48.539Z,3.80
2023-03-08T11:51:36.606Z,3.30
2023-03-08T11:54:32.529Z,3.50
2023-03-08T11:57:05.986Z,3.60
2023-03-08T11:59:35.364Z,3.60
2023-03-08T12:02:08.243Z,3.50
2023-03-08T12:04:44.592Z,3.20
2023-03-08T12:07:24.987Z,3.40
2023-03-08T12:10:25.855Z,3.80
2023-03-08T12:13:18.697Z,3.90
2023-03-08T12:16:15.423Z,3.20
2023-03-08T12:19:00.514Z,3.10
2023-03-08T12:21:50.422Z,3.80
2023-03-08T12:24:39.233Z,3.20
2023-03-08T12:27:26.311Z,3.20
2023-03-08T12:30:02.313Z,3.20
2023-03-08T12:32:30.261Z,3.40
2023-03-08T12:35:25.392Z,3.60
2023-03-08T12:38:06.040Z,3.20
2023-03-08T12:40:40.147Z,3.20
2023-03-08T12:43:20.098Z,3.40
2023-03-08T12:46:00.762Z,3.80
2023-03-08T12:48:38.119Z,3.20
2023-03-08T12:51:13.873Z,3.70
2023-03-08T12:53:46.135Z,3.80
2023-03-08T12:56:12.599Z,4.30
2023-03-08T12:59:11.001Z,3.40
2023-03-08T13:01:43.193Z,3.30
2023-03-08T13:04:40.469Z,2.40
2023-03-08T13:07:22.912Z,3.00
2023-03-08T13:10:02.411Z,2.40
2023-03-08T13:12:38.286Z,2.70
2023-03-08T13:15:13.933Z,3.10
2023-03-08T13:17:48.417Z,2.10
2023-03-08T13:20:23.902Z,2.50
2023-03-08T13:22:50.583Z,2.70
2023-03-08T13:25:33.649Z,2.80
2023-03-08T13:28:05.163Z,3.00
2023-03-08T13:30:54.217Z,2.80
2023-03-08T13:33:27.788Z,2.80
2023-03-08T13:36:04.300Z,2.80
2023-03-08T13:38:37.947Z,2.90
2023-03-08T13:41:04.727Z,2.50
2023-03-08T13:43:34.031Z,2.80
2023-03-08T13:46:03.487Z,3.20
2023-03-08T13:48:33.419Z,3.10
2023-03-08T13:51:01.392Z,3.40
2023-03-08T13:53:34.622Z,2.90
2023-03-08T13:56:04.282Z,2.90
2023-03-08T13:58:38.205Z,2.60
2023-03-08T14:01:04.826Z,5.00
2023-03-08T14:03:33.196Z,2.60
2023-03-08T14:06:01.012Z,2.60
2023-03-08T14:08:28.043Z,3.60
2023-03-08T14:10:57.391Z,3.10
2023-03-08T14:13:33.181Z,2.90
2023-03-08T14:16:03.495Z,3.20
2023-03-08T14:18:34.886Z,3.50
2023-03-08T14:21:13.800Z,3.70
2023-03-08T14:24:00.476Z,3.00
2023-03-08T14:26:33.966Z,3.20
2023-03-08T14:29:23.004Z,3.80
2023-03-08T14:31:56.753Z,4.30
2023-03-08T14:34:30.775Z,4.20
2023-03-08T14:37:01.251Z,2.40
2023-03-08T14:39:29.558Z,3.60
2023-03-08T14:41:56.813Z,6.50
2023-03-08T14:44:27.362Z,5.20
2023-03-08T14:46:54.338Z,3.40
2023-03-08T14:49:23.147Z,4.30
2023-03-08T14:51:50.580Z,5.60
2023-03-08T14:54:21.631Z,10.00
2023-03-08T14:56:49.708Z,5.70
2023-03-08T14:59:26.793Z,19.50
2023-03-08T15:01:54.889Z,10.80
2023-03-08T15:04:23.959Z,15.10
2023-03-08T15:06:52.891Z,11.90
2023-03-08T15:09:21.629Z,6.90
2023-03-08T15:11:50.887Z,8.30
2023-03-08T15:14:17.442Z,3.90
2023-03-08T15:16:44.011Z,7.10
2023-03-08T15:19:10.515Z,11.10
2023-03-08T15:21:37.956Z,9.90
2023-03-08T15:24:06.581Z,8.20
2023-03-08T15:26:33.546Z,3.80
2023-03-08T15:29:01.013Z,3.70
2023-03-08T15:31:27.532Z,3.50
2023-03-08T15:33:54.105Z,8.30
2023-03-08T15:36:20.664Z,7.20
2023-03-08T15:38:47.287Z,4.40
2023-03-08T15:41:15.148Z,5.70
2023-03-08T15:43:42.020Z,7.60
2023-03-08T15:46:15.870Z,4.00
2023-03-08T15:48:43.098Z,4.20
2023-03-08T15:51:18.850Z,2.80
2023-03-08T15:53:46.326Z,4.20
2023-03-08T15:56:12.996Z,5.70
2023-03-08T15:58:39.597Z,3.80
2023-03-08T16:01:06.886Z,2.50
2023-03-08T16:03:33.395Z,3.60
2023-03-08T16:05:59.963Z,3.50
2023-03-08T16:08:26.994Z,3.20
2023-03-08T16:10:53.496Z,4.00
2023-03-08T16:13:20.696Z,4.70
2023-03-08T16:15:47.864Z,4.40
2023-03-08T16:18:14.374Z,5.30
2023-03-08T16:20:41.384Z,4.00
2023-03-08T16:23:08.413Z,6.60
2023-03-08T16:25:34.957Z,6.30
2023-03-08T16:28:01.439Z,5.30
2023-03-08T16:30:27.949Z,9.00
2023-03-08T16:32:54.697Z,11.90
2023-03-08T16:35:21.661Z,11.40
2023-03-08T16:37:48.233Z,8.90
2023-03-08T16:40:14.918Z,5.50
2023-03-08T16:42:41.545Z,7.20
2023-03-08T16:45:08.856Z,8.60
2023-03-08T16:47:35.377Z,7.40
2023-03-08T16:50:01.878Z,6.90
2023-03-08T16:52:28.951Z,7.10
2023-03-08T16:54:56.800Z,6.40
2023-03-08T16:57:23.433Z,6.30
2023-03-08T16:59:49.964Z,5.20
2023-03-08T17:02:18.909Z,5.30
2023-03-08T17:04:47.187Z,6.70
2023-03-08T17:07:14.415Z,4.80
2023-03-08T17:09:40.858Z,5.30
2023-03-08T17:12:08.536Z,6.10
2023-03-08T17:14:36.199Z,7.90
2023-03-08T17:17:04.377Z,5.80
2023-03-08T17:19:31.011Z,6.70
2023-03-08T17:21:57.436Z,5.80
2023-03-08T17:24:24.309Z,6.30
2023-03-08T17:26:51.362Z,6.40
2023-03-08T17:29:18.134Z,6.50
2023-03-08T17:31:45.068Z,6.90
2023-03-08T17:34:11.598Z,6.10
2023-03-08T17:36:38.333Z,7.30
2023-03-08T17:39:05.001Z,6.00
2023-03-08T17:41:32.060Z,7.20
2023-03-08T17:43:58.739Z,6.90
2023-03-08T17:46:26.581Z,6.40
2023-03-08T17:48:54.859Z,7.10
2023-03-08T17:51:24.081Z,7.80
2023-03-08T17:53:51.124Z,7.50
2023-03-08T17:56:21.113Z,7.60
2023-03-08T17:58:48.951Z,8.50
2023-03-08T18:01:26.774Z,7.30
2023-03-08T18:03:54.424Z,7.10
2023-03-08T18:06:31.518Z,6.50
2023-03-08T18:08:59.580Z,7.00
2023-03-08T18:11:27.565Z,6.60
2023-03-08T18:13:54.862Z,6.80
2023-03-08T18:16:22.885Z,7.20
2023-03-08T18:18:50.049Z,5.90
2023-03-08T18:21:21.086Z,7.50
2023-03-08T18:23:47.853Z,7.40
2023-03-08T18:26:17.092Z,7.00
2023-03-08T18:28:43.749Z,7.60
2023-03-08T18:31:14.258Z,8.10
2023-03-08T18:33:40.734Z,8.00
2023-03-08T18:36:07.582Z,7.00
2023-03-08T18:38:34.678Z,6.70
2023-03-08T18:41:11.567Z,7.70
2023-03-08T18:43:40.706Z,6.00
2023-03-08T18:46:07.817Z,7.10
2023-03-08T18:48:34.252Z,7.70
2023-03-08T18:51:00.983Z,7.40
2023-03-08T18:53:27.548Z,8.00
2023-03-08T18:55:56.374Z,8.50
2023-03-08T18:58:23.241Z,9.00
2023-03-08T19:00:49.864Z,8.00
2023-03-08T19:03:16.458Z,8.50
2023-03-08T19:05:43.163Z,7.20
2023-03-08T19:08:09.901Z,7.70
2023-03-08T19:10:36.577Z,7.70
2023-03-08T19:13:03.391Z,7.60
2023-03-08T19:15:30.023Z,7.50
2023-03-08T19:17:57.972Z,8.70
2023-03-08T19:20:24.646Z,9.00
2023-03-08T19:22:51.131Z,8.10
2023-03-08T19:25:17.858Z,7.40
2023-03-08T19:27:44.541Z,6.60
2023-03-08T19:30:12.083Z,7.10
2023-03-08T19:32:39.940Z,7.60
2023-03-08T19:35:07.625Z,7.40
2023-03-08T19:37:34.083Z,7.70
2023-03-08T19:40:01.534Z,6.80
2023-03-08T19:42:28.185Z,6.10
2023-03-08T19:44:54.750Z,5.50
2023-03-08T19:47:21.256Z,6.00
2023-03-08T19:49:47.830Z,6.00
2023-03-08T19:52:14.399Z,6.90
2023-03-08T19:54:40.944Z,7.00
2023-03-08T19:57:09.102Z,6.80
2023-03-08T19:59:35.571Z,7.50
2023-03-08T20:02:02.383Z,6.10
2023-03-08T20:04:29.307Z,7.30
2023-03-08T20:06:59.591Z,6.30
2023-03-08T20:09:26.113Z,6.60
2023-03-08T20:11:57.580Z,6.50
2023-03-08T20:14:25.710Z,8.70
2023-03-08T20:16:52.259Z,9.80
2023-03-08T20:19:19.015Z,11.40
2023-03-08T20:21:45.449Z,9.60
2023-03-08T20:24:12.307Z,9.70
2023-03-08T20:26:39.060Z,10.00
2023-03-08T20:29:05.811Z,11.00
2023-03-08T20:31:33.330Z,10.90
2023-03-08T20:34:00.393Z,10.00
2023-03-08T20:36:27.514Z,8.50
2023-03-08T20:38:54.051Z,7.80
2023-03-08T20:41:21.496Z,7.50
2023-03-08T20:43:50.194Z,8.30
2023-03-08T20:46:20.883Z,7.30
2023-03-08T20:48:47.673Z,5.70
2023-03-08T20:51:16.638Z,6.70
2023-03-08T20:53:44.395Z,8.10
2023-03-08T20:56:15.732Z,6.90
2023-03-08T20:58:43.229Z,7.90
2023-03-08T21:01:12.418Z,10.10
2023-03-08T21:03:39.296Z,10.60
2023-03-08T21:06:23.348Z,25.20
2023-03-08T21:08:50.821Z,29.30
2023-03-08T21:11:17.876Z,25.60
2023-03-08T21:13:44.659Z,20.80
2023-03-08T21:16:14.015Z,21.00
2023-03-08T21:18:40.462Z,18.70
2023-03-08T21:21:06.934Z,13.70
2023-03-08T21:23:33.370Z,11.50
2023-03-08T21:26:00.771Z,11.20
2023-03-08T21:28:27.510Z,11.10
2023-03-08T21:30:54.131Z,10.50
2023-03-08T21:33:20.590Z,10.90
2023-03-08T21:35:47.176Z,9.50
2023-03-08T21:38:13.586Z,12.20
2023-03-08T21:40:42.152Z,16.90
2023-03-08T21:43:09.199Z,16.30
2023-03-08T21:45:41.403Z,17.20
2023-03-08T21:48:09.225Z,14.60
2023-03-08T21:50:38.819Z,16.40
2023-03-08T21:53:06.277Z,12.20
2023-03-08T21:55:32.927Z,10.10
2023-03-08T21:57:59.660Z,9.70
2023-03-08T22:00:26.151Z,9.30
2023-03-08T22:02:54.728Z,9.50
2023-03-08T22:05:21.608Z,10.10
2023-03-08T22:07:48.104Z,11.20
2023-03-08T22:10:14.664Z,10.10
2023-03-08T22:12:42.139Z,9.30
2023-03-08T22:15:09.543Z,7.70
2023-03-08T22:17:35.992Z,8.80
2023-03-08T22:20:02.711Z,8.30
2023-03-08T22:22:29.234Z,7.30
2023-03-08T22:24:55.739Z,7.80
2023-03-08T22:27:22.356Z,8.00
2023-03-08T22:29:48.887Z,12.10
2023-03-08T22:32:15.463Z,18.30
2023-03-08T22:34:42.181Z,28.90
2023-03-08T22:37:08.630Z,29.80
2023-03-08T22:39:35.121Z,45.10
2023-03-08T22:42:02.041Z,46.60
2023-03-08T22:44:28.539Z,36.30
2023-03-08T22:46:55.081Z,36.50
2023-03-08T22:49:21.517Z,52.40
2023-03-08T22:51:48.212Z,48.00
2023-03-08T22:54:17.354Z,46.20
2023-03-08T22:56:44.285Z,33.30
2023-03-08T22:59:10.776Z,33.70
2023-03-08T23:01:37.526Z,37.50
2023-03-08T23:04:05.927Z,33.80
2023-03-08T23:06:33.548Z,32.10
2023-03-08T23:09:04.372Z,27.90
2023-03-08T23:11:30.934Z,30.50
2023-03-08T23:13:57.575Z,26.20
2023-03-08T23:16:24.921Z,30.70
2023-03-08T23:18:52.804Z,20.00
2023-03-08T23:21:21.410Z,36.30
2023-03-08T23:23:48.052Z,24.60
2023-03-08T23:26:21.343Z,24.90
2023-03-08T23:28:47.990Z,19.90
2023-03-08T23:31:20.397Z,17.30
2023-03-08T23:33:47.839Z,14.10
2023-03-08T23:36:16.324Z,16.20
2023-03-08T23:38:43.560Z,17.70
2023-03-08T23:41:11.580Z,20.90
2023-03-08T23:43:38.843Z,21.10
2023-03-08T23:46:19.295Z,18.90
2023-03-08T23:48:46.982Z,25.50
2023-03-08T23:51:21.219Z,25.20
2023-03-08T23:53:49.859Z,22.30
2023-03-08T23:56:38.171Z,21.10
2023-03-08T23:59:17.526Z,21.50
